x

Cape Suckling - 35 Nm Se Of Kayak Is, Ak (46082) Wave Buoy

9:50am - Sun 25th Jan 2015 All times are AKST. -9 hours from GMT.

  • Sig Wave height 8.2ft
  • Peak Period 10s
  • Average Period 6s
  • Wind
    18mph, 25mph gusts
  • Sea Temp 46°f
  • Air Temp 37°f
  • Sea Pressure 999.6mb
  • Cape Suckling - 35 Nm Se Of Kayak Is, Ak
  • Cape Suckling - 35 Nm Se Of Kayak Is, Ak

More Historic Weather Station data

Upgrade to MSW Pro to gain access to the past 30 days of data for over 8000 Wavebouys and Weather Stations around the globe.

Join Pro

Comparision Forecast

View Surf forecast
   
Sun 01/25 9:50am 8ft 10s 6s 18 25 mph 999.6mb 46f 37f
8:50am 9ft 9s 7s 18 25 mph 998.7mb 46f 38f
7:50am 8ft 9s 7s 18 20 mph 997.7mb 46f 38f
6:50am 8ft 10s 6s 11 16 mph 996.9mb 46f 38f
5:50am 7ft 9s 6s 9 11 mph 995.9mb 46f 38f
4:50am 8ft 8s 6s 18 25 mph 994.7mb 46f 39f
3:50am 7ft 10s 5s 18 25 mph 993.7mb 46f 39f
2:50am 7.5ft 5s 5s 22 27 mph 992.7mb 46f 39f
1:50am 7ft 10s 5s 25 29 mph 991.4mb 46f 40f
12:50am 7.5ft 10s 6s 25 29 mph 990.2mb 46f 42f
Sat 01/24 11:50pm 6.5ft 10s 6s 22 27 mph 989mb 46f 41f
10:50pm 7ft 10s 7s 16 18 mph 988.3mb 46f 42f
9:50pm 8ft 11s 7s 11 13 mph 988mb 46f 44f
8:50pm 8ft 10s 7s 11 16 mph 987.8mb 46f 43f
7:50pm 9ft 10s 7s 11 13 mph 987.8mb 46f 43f
6:50pm 8.5ft 10s 6s 13 16 mph 987.9mb 46f 43f
5:50pm 9.5ft 10s 6s 13 18 mph 988.6mb 46f 43f
4:50pm 10.5ft 11s 6s 20 22 mph 989.2mb 46f 43f
3:50pm 9.5ft 10s 6s 25 29 mph 990.6mb 46f 43f
2:50pm 9ft 11s 6s 25 29 mph 992.4mb 46f 42f
1:50pm 10ft 11s 6s 25 31 mph 994mb 46f 44f
12:50pm 10ft 11s 6s 25 29 mph 995.8mb 46f 44f
11:50am 9ft 11s 6s 27 34 mph 997.3mb 46f 44f
10:50am 10ft 10s 7s 27 31 mph 998.7mb 46f 43f
9:50am 10ft 13s 7s 22 27 mph 999.8mb 45f 44f
8:50am 11.5ft 12s 7s 25 29 mph 1000.5mb 45f 44f
7:50am 11.5ft 12s 8s 16 20 mph 1001.2mb 45f 43f
6:50am 11ft 11s 7s 16 20 mph 1001mb 45f 43f
5:50am 12ft 11s 8s 18 27 mph 1001.5mb 45f 44f
4:50am 14ft 12s 9s 9 11 mph 1001.5mb 45f 44f
3:50am 14ft 12s 8s 13 16 mph 1001.2mb 46f 44f
2:50am 13.5ft 12s 8s 16 20 mph 1000.9mb 46f 44f
1:50am 12ft 13s 8s 20 25 mph 999.6mb 46f 45f
12:50am 12ft 13s 8s 18 22 mph 998.2mb 46f 45f
Fri 01/23 11:50pm 13ft 12s 8s 27 34 mph 996.2mb 45f 44f
10:50pm 11ft 11s 8s 18 22 mph 994.6mb 45f 44f
9:50pm 11.5ft 13s 8s 13 18 mph 993.2mb 45f 44f
8:50pm 11.5ft 11s 7s 11 13 mph 991.8mb 45f 45f
7:50pm 12ft 13s 7s 11 13 mph 990.7mb 45f 44f
6:50pm 12ft 10s 7s 13 16 mph 989.5mb 45f 44f
5:50pm 11.5ft 12s 7s 20 25 mph 988.4mb 45f 44f
4:50pm 14.5ft 13s 7s 25 29 mph 987.7mb 45f 44f
3:50pm 14ft 13s 7s 29 38 mph 986.8mb 45f 44f
2:50pm 15ft 14s 7s 31 38 mph 986mb 45f 44f
1:50pm 15ft 14s 7s 34 38 mph 986.3mb 45f 43f
12:50pm 13.5ft 14s 7s 29 36 mph 987.2mb 45f 44f
11:50am 12.5ft 11s 7s 29 34 mph 988.2mb 45f 44f
10:50am 12ft 10s 7s 27 31 mph 989.4mb 45f 45f
9:50am 12ft 10s 7s 22 27 mph 990.4mb 45f 45f
8:50am 12ft 10s 7s 25 29 mph 991.6mb 45f 45f
7:50am 11.5ft 10s 7s 22 31 mph 992.7mb 46f 45f
6:50am 10ft 11s 6s 25 31 mph 993.5mb 46f 45f
5:50am 12ft 11s 7s 22 29 mph 994.1mb 45f 44f
4:50am 11ft 11s 7s 18 25 mph 994.6mb 46f 45f
3:50am 10ft 11s 7s 13 18 mph 994.6mb 46f 45f
2:50am 10ft 11s 7s 11 16 mph 994.4mb 46f 45f
1:50am 10ft 11s 7s 13 18 mph 994.2mb 46f 45f
12:50am 10ft 11s 7s 13 16 mph 993.7mb 46f 45f
Thu 01/22 11:50pm 10ft 11s 7s 9 11 mph 992.7mb 46f 45f
10:50pm 10ft 11s 7s 11 16 mph 991.1mb 46f 45f
9:50pm 10ft 11s 7s 9 13 mph 990mb 46f 44f
8:50pm 11ft 11s 7s 7 11 mph 988.9mb 46f 45f
7:50pm 12ft 10s 7s 11 16 mph 988.2mb 46f 45f
6:50pm 12.5ft 10s 7s 11 16 mph 987.7mb 46f 45f
5:50pm 12ft 11s 7s 16 18 mph 987.7mb 45f 46f
4:50pm 11ft 11s 6s 20 25 mph 988.2mb 46f 46f
3:50pm 11ft 11s 6s 22 27 mph 988.7mb 46f 46f
2:50pm 12ft 11s 6s 22 27 mph 989.4mb 46f 46f
1:50pm 11.5ft 10s 6s 22 29 mph 990.3mb 46f 46f
12:50pm 11ft 10s 6s 27 31 mph 990.8mb 46f 46f
11:50am 11ft 11s 6s 27 36 mph 991.3mb 46f 46f
10:50am 11ft 10s 6s 27 34 mph 992.1mb 46f 45f
9:50am 10.5ft 11s 6s 29 36 mph 992.8mb 46f 44f
8:50am 10ft 10s 6s 25 31 mph 992.7mb 46f 45f
7:50am 9ft 10s 7s 25 29 mph 992.9mb 46f 45f
6:50am 9ft 10s 7s 20 27 mph 993mb 46f 44f
5:50am 8ft 10s 7s 20 22 mph 993.1mb 46f 44f
4:50am 7ft 9s 7s 16 18 mph 992.7mb 46f 44f
3:50am 7ft 10s 7s 16 18 mph 992.2mb 46f 44f
2:50am 7ft 10s 7s 18 22 mph 991.3mb 46f 44f
1:50am 7ft 10s 7s 13 18 mph 990.7mb 45f 44f
12:50am 7ft 10s 8s 9 11 mph 989.5mb 45f 44f
Wed 01/21 11:50pm 7ft 9s 8s 9 11 mph 988.4mb 45f 44f
10:50pm 6.5ft 9s 8s 9
mph
987.1mb 46f 44f
9:50pm 5.5ft 10s 7s 7 9 mph 986mb 46f 44f
8:50pm 6.5ft 9s 7s  -  2 mph 984.9mb 46f 42f